x

Capo Mele (16153) Weather Station

9:55pm - Sat 21st Jan 2017 All times are CET. 1 hours from GMT.

  • Wind
    29mph, 44mph gusts
  • Air Temp 48°f
  • Sea Pressure 1023mb
  • Capo Mele
  • Capo Mele

More Historic Weather Station data

Upgrade to MSW Pro to gain access to the past 30 days of data for over 8000 Wavebouys and Weather Stations around the globe.

Join Pro

Comparision Forecast

View Surf forecast
   
Sat 01/21 9:55pm 29 44 mph 1023mb 48f
8:55pm 30 46 mph 1023mb 48f
7:55pm 30 44 mph 1023mb 48f
6:55pm 31 51 mph 1023mb 48f
5:55pm 30 44 mph 1023mb 50f
4:55pm 29 44 mph 1023mb 52f
3:55pm 28 46 mph 1023mb 54f
2:55pm 28 40 mph 1025mb 52f
1:55pm 27 39 mph 1025mb 52f
12:55pm 27 44 mph 1025mb 52f
11:55am 24
mph
1026mb 50f
10:55am 27 39 mph 1026mb 50f
9:55am 29 45 mph 1026mb 48f
8:55am 32 54 mph 1026mb 45f
7:55am 30 46 mph 1026mb 45f
6:55am 28 45 mph 1026mb 45f
5:55am 24
mph
1026mb 45f
4:55am 25
mph
1027mb 45f
3:55am 27
mph
1027mb 45f
2:55am 27
mph
1028mb 45f
1:55am 24 40 mph 1028mb 45f
12:55am 23 36 mph 1028mb 45f
Fri 01/20 11:55pm 22 37 mph 1028mb 45f
10:55pm 22 35 mph 1028mb 45f
9:55pm 23
mph
1028mb 45f
8:55pm 21 35 mph 1028mb 45f
7:55pm 20
mph
1028mb 45f
6:55pm 20
mph
1027mb 45f
5:55pm 20
mph
1028mb 45f
4:55pm 18
mph
1028mb 48f
3:55pm 21
mph
1028mb 50f
2:55pm 23
mph
1028mb 52f
1:55pm 24
mph
1028mb 52f
12:55pm 23
mph
1029mb 52f
11:55am 24
mph
1029mb 50f
10:55am 24
mph
1029mb 48f
9:55am 25
mph
1028mb 45f
8:55am 27 43 mph 1028mb 43f
7:55am 25 45 mph 1028mb 41f
6:55am 25 45 mph 1028mb 41f
5:55am 25 46 mph 1028mb 41f
4:55am 24 46 mph 1027mb 41f
3:55am 24 46 mph 1028mb 41f
2:55am 25 53 mph 1028mb 41f
1:55am 24 44 mph 1028mb 41f
12:55am 25 41 mph 1028mb 41f
Thu 01/19 11:55pm 22 40 mph 1028mb 43f
10:55pm 22
mph
1028mb 43f
9:55pm 22 35 mph 1028mb 43f
8:55pm 22 33 mph 1027mb 43f
7:55pm 23 36 mph 1027mb 45f
6:55pm 24 36 mph 1026mb 45f
5:55pm 23 38 mph 1026mb 45f
4:55pm 22 37 mph 1026mb 45f
3:55pm 24 39 mph 1025mb 46f
2:55pm 25 38 mph 1025mb 45f
1:55pm 24 37 mph 1026mb 45f
12:55pm 23 37 mph 1026mb 45f
11:55am 21
mph
1026mb 46f
10:55am 28 43 mph 1026mb 46f
9:55am 27 45 mph 1025mb 45f
8:55am 27 46 mph 1025mb 43f
7:55am 22 33 mph 1024mb 43f
6:55am 27 45 mph 1023mb 43f
5:55am 27 44 mph 1023mb 43f
4:55am 29 45 mph 1023mb 43f
3:55am 29 47 mph 1023mb 41f
2:55am 30 47 mph 1022mb 43f
1:55am 30 51 mph 1022mb 45f
12:55am 31 51 mph 1022mb 45f
Wed 01/18 11:55pm 32 52 mph 1022mb 45f
10:55pm 29 46 mph 1022mb 45f
9:55pm 27 47 mph 1021mb 45f
8:55pm 36 52 mph 1021mb 45f
7:55pm 29 47 mph 1021mb 45f
6:55pm 24 40 mph 1020mb 45f
5:55pm 25 46 mph 1020mb 45f
4:55pm 28 44 mph 1019mb 48f
3:55pm 29 59 mph 1019mb 48f
2:55pm 32 65 mph 1019mb 48f
1:55pm 30 46 mph 1019mb 48f
12:55pm 29 53 mph 1019mb 48f
11:55am 33 53 mph 1019mb 48f
10:55am 36 70 mph 1019mb 46f
9:55am 35 59 mph 1018mb 45f
8:55am 35 62 mph 1018mb 43f
7:55am 39 70 mph 1017mb 43f
6:55am 36 56 mph 1016mb 41f
5:55am 36 55 mph 1016mb 41f
4:55am 36 55 mph 1016mb 41f
3:55am 36 65 mph 1016mb 41f
2:55am 39 61 mph 1016mb 41f
1:55am 38 62 mph 1016mb 41f
12:55am 35 62 mph 1016mb 41f
Tue 01/17 11:55pm 43 71 mph 1016mb 41f